sensor_id;sensor_type;location;lat;lon;timestamp;P1;durP1;ratioP1;P2;durP2;ratioP2
22205;SDS011;11272;50.104;8.754;2023-03-29T00:37:19;1.80;;;1.13;;
22205;SDS011;11272;50.104;8.754;2023-03-29T00:39:44;2.47;;;1.30;;
22205;SDS011;11272;50.104;8.754;2023-03-29T00:42:14;2.00;;;1.27;;
22205;SDS011;11272;50.104;8.754;2023-03-29T00:47:59;4.37;;;1.53;;
22205;SDS011;11272;50.104;8.754;2023-03-29T00:53:04;4.37;;;1.07;;
22205;SDS011;11272;50.104;8.754;2023-03-29T00:55:41;3.37;;;1.40;;
22205;SDS011;11272;50.104;8.754;2023-03-29T00:58:14;5.23;;;1.63;;
22205;SDS011;11272;50.104;8.754;2023-03-29T01:00:49;1.77;;;1.20;;
22205;SDS011;11272;50.104;8.754;2023-03-29T01:03:19;1.70;;;1.13;;
22205;SDS011;11272;50.104;8.754;2023-03-29T01:06:00;1.70;;;1.30;;
22205;SDS011;11272;50.104;8.754;2023-03-29T01:08:40;1.43;;;1.03;;
22205;SDS011;11272;50.104;8.754;2023-03-29T01:11:16;1.87;;;1.20;;
22205;SDS011;11272;50.104;8.754;2023-03-29T01:16:23;3.43;;;1.37;;
22205;SDS011;11272;50.104;8.754;2023-03-29T01:18:52;4.13;;;1.30;;
22205;SDS011;11272;50.104;8.754;2023-03-29T01:21:20;2.70;;;1.20;;
22205;SDS011;11272;50.104;8.754;2023-03-29T01:29:12;1.23;;;1.07;;
22205;SDS011;11272;50.104;8.754;2023-03-29T01:31:53;3.00;;;1.30;;
22205;SDS011;11272;50.104;8.754;2023-03-29T01:34:34;3.57;;;1.53;;
22205;SDS011;11272;50.104;8.754;2023-03-29T01:37:24;3.47;;;1.33;;
22205;SDS011;11272;50.104;8.754;2023-03-29T01:39:56;1.93;;;1.30;;
22205;SDS011;11272;50.104;8.754;2023-03-29T01:43:10;2.70;;;1.53;;
22205;SDS011;11272;50.104;8.754;2023-03-29T01:45:48;3.43;;;1.30;;
22205;SDS011;11272;50.104;8.754;2023-03-29T01:48:27;3.40;;;1.73;;
22205;SDS011;11272;50.104;8.754;2023-03-29T01:51:04;2.23;;;1.30;;
22205;SDS011;11272;50.104;8.754;2023-03-29T01:54:17;2.57;;;1.20;;
22205;SDS011;11272;50.104;8.754;2023-03-29T01:56:29;3.53;;;1.50;;
22205;SDS011;11272;50.104;8.754;2023-03-29T01:59:00;3.33;;;1.53;;
22205;SDS011;11272;50.104;8.754;2023-03-29T02:01:35;2.33;;;1.50;;
22205;SDS011;11272;50.104;8.754;2023-03-29T02:04:06;2.97;;;1.50;;
22205;SDS011;11272;50.104;8.754;2023-03-29T02:06:35;3.03;;;1.60;;
22205;SDS011;11272;50.104;8.754;2023-03-29T02:09:04;2.90;;;1.73;;
22205;SDS011;11272;50.104;8.754;2023-03-29T02:11:31;2.53;;;1.57;;
22205;SDS011;11272;50.104;8.754;2023-03-29T02:14:00;5.30;;;1.90;;
22205;SDS011;11272;50.104;8.754;2023-03-29T02:16:26;2.97;;;1.80;;
22205;SDS011;11272;50.104;8.754;2023-03-29T02:18:53;2.67;;;1.73;;
22205;SDS011;11272;50.104;8.754;2023-03-29T02:23:54;3.93;;;1.90;;
22205;SDS011;11272;50.104;8.754;2023-03-29T02:26:22;3.40;;;1.93;;
22205;SDS011;11272;50.104;8.754;2023-03-29T02:28:48;6.07;;;2.13;;
22205;SDS011;11272;50.104;8.754;2023-03-29T02:36:46;2.40;;;1.83;;
22205;SDS011;11272;50.104;8.754;2023-03-29T02:39:16;4.50;;;2.13;;
22205;SDS011;11272;50.104;8.754;2023-03-29T02:41:43;2.50;;;1.70;;
22205;SDS011;11272;50.104;8.754;2023-03-29T02:44:14;2.17;;;1.70;;
22205;SDS011;11272;50.104;8.754;2023-03-29T02:46:43;2.40;;;1.63;;
22205;SDS011;11272;50.104;8.754;2023-03-29T02:49:12;2.13;;;1.50;;
22205;SDS011;11272;50.104;8.754;2023-03-29T02:51:39;2.90;;;1.93;;
22205;SDS011;11272;50.104;8.754;2023-03-29T02:56:44;3.40;;;1.93;;
22205;SDS011;11272;50.104;8.754;2023-03-29T02:59:12;3.40;;;1.90;;
22205;SDS011;11272;50.104;8.754;2023-03-29T03:01:38;7.37;;;2.00;;
22205;SDS011;11272;50.104;8.754;2023-03-29T03:04:08;5.67;;;1.97;;
22205;SDS011;11272;50.104;8.754;2023-03-29T03:06:35;2.77;;;1.80;;
22205;SDS011;11272;50.104;8.754;2023-03-29T03:09:03;3.70;;;1.90;;
22205;SDS011;11272;50.104;8.754;2023-03-29T03:11:33;2.90;;;1.83;;
22205;SDS011;11272;50.104;8.754;2023-03-29T03:43:19;4.10;;;2.30;;
22205;SDS011;11272;50.104;8.754;2023-03-29T03:54:35;4.30;;;1.83;;
22205;SDS011;11272;50.104;8.754;2023-03-29T06:05:20;4.43;;;2.10;;
22205;SDS011;11272;50.104;8.754;2023-03-29T06:07:56;3.47;;;2.07;;
22205;SDS011;11272;50.104;8.754;2023-03-29T06:10:43;5.43;;;2.30;;
22205;SDS011;11272;50.104;8.754;2023-03-29T06:13:23;4.57;;;2.10;;
22205;SDS011;11272;50.104;8.754;2023-03-29T06:15:49;4.60;;;1.80;;
22205;SDS011;11272;50.104;8.754;2023-03-29T06:18:15;2.83;;;1.57;;
22205;SDS011;11272;50.104;8.754;2023-03-29T06:20:41;3.87;;;1.93;;
22205;SDS011;11272;50.104;8.754;2023-03-29T06:23:12;2.50;;;2.10;;
22205;SDS011;11272;50.104;8.754;2023-03-29T06:25:38;3.80;;;2.10;;
22205;SDS011;11272;50.104;8.754;2023-03-29T06:28:06;6.10;;;2.37;;
22205;SDS011;11272;50.104;8.754;2023-03-29T06:30:33;4.67;;;2.50;;
22205;SDS011;11272;50.104;8.754;2023-03-29T06:32:59;5.30;;;2.60;;
22205;SDS011;11272;50.104;8.754;2023-03-29T06:36:00;6.40;;;2.83;;
22205;SDS011;11272;50.104;8.754;2023-03-29T06:41:39;6.00;;;2.80;;
22205;SDS011;11272;50.104;8.754;2023-03-29T06:44:05;5.30;;;2.90;;
22205;SDS011;11272;50.104;8.754;2023-03-29T06:46:35;7.93;;;2.63;;
22205;SDS011;11272;50.104;8.754;2023-03-29T06:49:05;6.63;;;2.80;;
22205;SDS011;11272;50.104;8.754;2023-03-29T06:51:36;6.27;;;2.80;;
22205;SDS011;11272;50.104;8.754;2023-03-29T06:54:02;5.03;;;3.37;;
22205;SDS011;11272;50.104;8.754;2023-03-29T06:56:28;6.47;;;2.90;;
22205;SDS011;11272;50.104;8.754;2023-03-29T07:02:10;6.30;;;3.50;;
22205;SDS011;11272;50.104;8.754;2023-03-29T07:04:51;5.43;;;3.27;;
22205;SDS011;11272;50.104;8.754;2023-03-29T07:07:27;6.27;;;3.13;;
22205;SDS011;11272;50.104;8.754;2023-03-29T07:10:19;8.70;;;3.50;;
22205;SDS011;11272;50.104;8.754;2023-03-29T07:13:24;6.67;;;3.20;;
22205;SDS011;11272;50.104;8.754;2023-03-29T07:15:52;7.53;;;3.57;;
22205;SDS011;11272;50.104;8.754;2023-03-29T07:21:10;5.37;;;2.93;;
22205;SDS011;11272;50.104;8.754;2023-03-29T07:23:37;6.40;;;2.93;;
22205;SDS011;11272;50.104;8.754;2023-03-29T07:26:04;5.07;;;3.00;;
22205;SDS011;11272;50.104;8.754;2023-03-29T07:28:53;4.90;;;2.90;;
22205;SDS011;11272;50.104;8.754;2023-03-29T07:42:44;4.83;;;2.50;;
22205;SDS011;11272;50.104;8.754;2023-03-29T07:45:15;7.63;;;2.30;;
22205;SDS011;11272;50.104;8.754;2023-03-29T07:47:57;10.33;;;2.73;;
22205;SDS011;11272;50.104;8.754;2023-03-29T07:50:26;9.87;;;2.60;;
22205;SDS011;11272;50.104;8.754;2023-03-29T07:52:56;4.30;;;2.47;;
22205;SDS011;11272;50.104;8.754;2023-03-29T07:55:22;4.13;;;2.30;;
22205;SDS011;11272;50.104;8.754;2023-03-29T07:58:08;3.77;;;2.10;;
22205;SDS011;11272;50.104;8.754;2023-03-29T08:00:34;3.77;;;2.17;;
22205;SDS011;11272;50.104;8.754;2023-03-29T08:03:38;3.97;;;2.13;;
22205;SDS011;11272;50.104;8.754;2023-03-29T08:06:04;4.00;;;2.30;;
22205;SDS011;11272;50.104;8.754;2023-03-29T08:08:31;3.53;;;2.30;;
22205;SDS011;11272;50.104;8.754;2023-03-29T08:11:02;4.83;;;2.17;;
22205;SDS011;11272;50.104;8.754;2023-03-29T08:13:33;4.27;;;2.20;;
22205;SDS011;11272;50.104;8.754;2023-03-29T08:16:19;4.50;;;2.30;;
22205;SDS011;11272;50.104;8.754;2023-03-29T08:18:51;2.67;;;2.10;;
22205;SDS011;11272;50.104;8.754;2023-03-29T08:21:19;3.83;;;2.20;;
22205;SDS011;11272;50.104;8.754;2023-03-29T08:23:48;8.03;;;2.70;;
22205;SDS011;11272;50.104;8.754;2023-03-29T08:26:18;5.33;;;2.50;;
22205;SDS011;11272;50.104;8.754;2023-03-29T08:28:44;5.07;;;2.40;;
22205;SDS011;11272;50.104;8.754;2023-03-29T08:31:11;5.60;;;2.57;;
22205;SDS011;11272;50.104;8.754;2023-03-29T08:33:39;3.23;;;1.90;;
22205;SDS011;11272;50.104;8.754;2023-03-29T08:36:41;3.60;;;2.20;;
22205;SDS011;11272;50.104;8.754;2023-03-29T08:39:14;4.33;;;2.10;;
22205;SDS011;11272;50.104;8.754;2023-03-29T08:47:21;6.47;;;2.97;;
22205;SDS011;11272;50.104;8.754;2023-03-29T08:50:00;4.93;;;2.70;;
22205;SDS011;11272;50.104;8.754;2023-03-29T08:52:37;6.13;;;2.57;;
22205;SDS011;11272;50.104;8.754;2023-03-29T08:55:33;4.17;;;2.70;;
22205;SDS011;11272;50.104;8.754;2023-03-29T08:58:26;5.20;;;2.50;;
22205;SDS011;11272;50.104;8.754;2023-03-29T09:00:57;5.33;;;2.37;;
22205;SDS011;11272;50.104;8.754;2023-03-29T09:06:11;4.77;;;2.87;;
22205;SDS011;11272;50.104;8.754;2023-03-29T09:08:39;4.43;;;2.47;;
22205;SDS011;11272;50.104;8.754;2023-03-29T09:18:59;5.43;;;2.60;;
22205;SDS011;11272;50.104;8.754;2023-03-29T09:24:26;5.27;;;2.53;;
22205;SDS011;11272;50.104;8.754;2023-03-29T09:27:09;3.77;;;2.43;;
22205;SDS011;11272;50.104;8.754;2023-03-29T09:35:34;3.50;;;2.33;;
22205;SDS011;11272;50.104;8.754;2023-03-29T09:38:03;6.13;;;2.73;;
22205;SDS011;11272;50.104;8.754;2023-03-29T09:40:38;6.20;;;2.90;;
22205;SDS011;11272;50.104;8.754;2023-03-29T09:43:35;4.50;;;2.80;;
22205;SDS011;11272;50.104;8.754;2023-03-29T09:46:56;5.50;;;2.90;;
22205;SDS011;11272;50.104;8.754;2023-03-29T09:49:18;6.47;;;3.23;;
22205;SDS011;11272;50.104;8.754;2023-03-29T09:51:48;4.23;;;2.70;;
22205;SDS011;11272;50.104;8.754;2023-03-29T09:54:16;4.60;;;2.67;;
22205;SDS011;11272;50.104;8.754;2023-03-29T09:57:01;9.53;;;2.90;;
22205;SDS011;11272;50.104;8.754;2023-03-29T09:59:28;5.20;;;2.70;;
22205;SDS011;11272;50.104;8.754;2023-03-29T10:01:53;4.57;;;2.47;;
22205;SDS011;11272;50.104;8.754;2023-03-29T10:04:30;5.30;;;2.90;;
22205;SDS011;11272;50.104;8.754;2023-03-29T10:06:58;8.80;;;2.90;;
22205;SDS011;11272;50.104;8.754;2023-03-29T10:09:24;3.10;;;1.80;;
22205;SDS011;11272;50.104;8.754;2023-03-29T10:12:04;5.57;;;2.17;;
22205;SDS011;11272;50.104;8.754;2023-03-29T10:17:03;3.70;;;2.53;;
22205;SDS011;11272;50.104;8.754;2023-03-29T10:19:35;5.27;;;2.60;;
22205;SDS011;11272;50.104;8.754;2023-03-29T10:22:02;4.50;;;2.30;;
22205;SDS011;11272;50.104;8.754;2023-03-29T10:24:29;4.50;;;2.20;;
22205;SDS011;11272;50.104;8.754;2023-03-29T10:26:59;4.17;;;2.40;;
22205;SDS011;11272;50.104;8.754;2023-03-29T10:29:33;2.57;;;2.20;;
22205;SDS011;11272;50.104;8.754;2023-03-29T10:32:23;3.97;;;2.30;;
22205;SDS011;11272;50.104;8.754;2023-03-29T10:34:57;4.17;;;2.77;;
22205;SDS011;11272;50.104;8.754;2023-03-29T10:37:27;3.63;;;2.13;;
22205;SDS011;11272;50.104;8.754;2023-03-29T10:39:53;4.07;;;2.40;;
22205;SDS011;11272;50.104;8.754;2023-03-29T10:42:19;3.47;;;2.47;;
22205;SDS011;11272;50.104;8.754;2023-03-29T10:44:55;5.47;;;2.40;;
22205;SDS011;11272;50.104;8.754;2023-03-29T10:47:22;3.83;;;2.40;;
22205;SDS011;11272;50.104;8.754;2023-03-29T10:49:50;5.23;;;2.43;;
22205;SDS011;11272;50.104;8.754;2023-03-29T10:52:18;4.87;;;2.50;;
22205;SDS011;11272;50.104;8.754;2023-03-29T10:54:44;5.07;;;2.40;;
22205;SDS011;11272;50.104;8.754;2023-03-29T10:57:14;5.73;;;2.50;;
22205;SDS011;11272;50.104;8.754;2023-03-29T10:59:51;4.78;;;2.58;;
22205;SDS011;11272;50.104;8.754;2023-03-29T11:05:08;6.90;;;2.40;;
22205;SDS011;11272;50.104;8.754;2023-03-29T11:07:46;5.20;;;2.20;;
22205;SDS011;11272;50.104;8.754;2023-03-29T11:13:24;5.03;;;2.43;;
22205;SDS011;11272;50.104;8.754;2023-03-29T11:18:50;3.40;;;2.30;;
22205;SDS011;11272;50.104;8.754;2023-03-29T11:24:39;4.50;;;2.50;;
22205;SDS011;11272;50.104;8.754;2023-03-29T11:27:12;8.53;;;3.40;;
22205;SDS011;11272;50.104;8.754;2023-03-29T11:38:12;4.60;;;2.30;;
22205;SDS011;11272;50.104;8.754;2023-03-29T11:40:49;4.50;;;2.70;;
22205;SDS011;11272;50.104;8.754;2023-03-29T11:43:24;2.87;;;2.40;;
22205;SDS011;11272;50.104;8.754;2023-03-29T11:45:52;7.27;;;2.50;;
22205;SDS011;11272;50.104;8.754;2023-03-29T11:48:23;6.80;;;2.63;;
22205;SDS011;11272;50.104;8.754;2023-03-29T11:50:54;5.53;;;2.30;;
22205;SDS011;11272;50.104;8.754;2023-03-29T11:53:29;4.80;;;2.50;;
22205;SDS011;11272;50.104;8.754;2023-03-29T11:56:05;5.17;;;2.60;;
22205;SDS011;11272;50.104;8.754;2023-03-29T11:58:37;4.83;;;2.13;;
22205;SDS011;11272;50.104;8.754;2023-03-29T12:01:11;4.60;;;2.47;;
22205;SDS011;11272;50.104;8.754;2023-03-29T12:03:49;6.53;;;2.23;;
22205;SDS011;11272;50.104;8.754;2023-03-29T12:06:20;5.87;;;2.70;;
22205;SDS011;11272;50.104;8.754;2023-03-29T12:08:53;4.43;;;2.23;;
22205;SDS011;11272;50.104;8.754;2023-03-29T12:11:25;3.73;;;2.57;;
22205;SDS011;11272;50.104;8.754;2023-03-29T12:14:13;4.27;;;2.40;;
22205;SDS011;11272;50.104;8.754;2023-03-29T12:16:50;5.53;;;2.13;;
22205;SDS011;11272;50.104;8.754;2023-03-29T12:19:23;5.40;;;2.67;;
22205;SDS011;11272;50.104;8.754;2023-03-29T12:22:00;4.30;;;2.63;;
22205;SDS011;11272;50.104;8.754;2023-03-29T12:24:28;3.40;;;2.37;;
22205;SDS011;11272;50.104;8.754;2023-03-29T12:27:02;5.07;;;2.80;;
22205;SDS011;11272;50.104;8.754;2023-03-29T12:30:00;3.87;;;2.63;;
22205;SDS011;11272;50.104;8.754;2023-03-29T12:39:02;3.33;;;2.20;;
22205;SDS011;11272;50.104;8.754;2023-03-29T12:42:21;4.57;;;2.33;;
22205;SDS011;11272;50.104;8.754;2023-03-29T12:45:11;4.73;;;2.80;;
22205;SDS011;11272;50.104;8.754;2023-03-29T12:47:42;3.63;;;2.10;;
22205;SDS011;11272;50.104;8.754;2023-03-29T12:50:21;5.70;;;2.10;;
22205;SDS011;11272;50.104;8.754;2023-03-29T12:53:03;3.90;;;2.00;;
22205;SDS011;11272;50.104;8.754;2023-03-29T12:55:33;4.27;;;2.70;;
22205;SDS011;11272;50.104;8.754;2023-03-29T13:06:04;4.40;;;2.03;;
22205;SDS011;11272;50.104;8.754;2023-03-29T13:08:37;3.50;;;2.80;;
22205;SDS011;11272;50.104;8.754;2023-03-29T13:11:51;4.30;;;2.60;;
22205;SDS011;11272;50.104;8.754;2023-03-29T13:14:00;3.33;;;1.97;;
22205;SDS011;11272;50.104;8.754;2023-03-29T13:16:28;5.83;;;2.43;;
22205;SDS011;11272;50.104;8.754;2023-03-29T13:19:02;5.37;;;2.97;;
22205;SDS011;11272;50.104;8.754;2023-03-29T13:33:02;6.50;;;2.80;;
22205;SDS011;11272;50.104;8.754;2023-03-29T13:35:59;10.77;;;2.97;;
22205;SDS011;11272;50.104;8.754;2023-03-29T13:38:52;5.23;;;2.77;;
22205;SDS011;11272;50.104;8.754;2023-03-29T13:41:30;3.73;;;2.50;;
22205;SDS011;11272;50.104;8.754;2023-03-29T13:43:59;4.03;;;2.30;;
22205;SDS011;11272;50.104;8.754;2023-03-29T13:46:38;7.67;;;3.07;;
22205;SDS011;11272;50.104;8.754;2023-03-29T13:49:22;4.50;;;2.60;;
22205;SDS011;11272;50.104;8.754;2023-03-29T13:52:05;6.33;;;3.10;;
22205;SDS011;11272;50.104;8.754;2023-03-29T13:57:30;4.47;;;2.63;;
22205;SDS011;11272;50.104;8.754;2023-03-29T14:00:09;6.93;;;2.60;;
22205;SDS011;11272;50.104;8.754;2023-03-29T14:02:43;6.77;;;3.00;;
22205;SDS011;11272;50.104;8.754;2023-03-29T14:05:14;4.73;;;2.70;;
22205;SDS011;11272;50.104;8.754;2023-03-29T14:07:52;4.40;;;2.77;;
22205;SDS011;11272;50.104;8.754;2023-03-29T14:10:26;2.93;;;1.43;;
22205;SDS011;11272;50.104;8.754;2023-03-29T14:13:02;4.23;;;2.10;;
22205;SDS011;11272;50.104;8.754;2023-03-29T14:15:36;4.93;;;2.70;;
22205;SDS011;11272;50.104;8.754;2023-03-29T14:18:08;6.93;;;2.57;;
22205;SDS011;11272;50.104;8.754;2023-03-29T14:20:36;5.73;;;2.40;;
22205;SDS011;11272;50.104;8.754;2023-03-29T14:23:09;7.13;;;2.60;;
22205;SDS011;11272;50.104;8.754;2023-03-29T14:25:37;5.90;;;2.43;;
22205;SDS011;11272;50.104;8.754;2023-03-29T14:28:20;4.60;;;2.00;;
22205;SDS011;11272;50.104;8.754;2023-03-29T14:30:47;5.53;;;2.43;;
22205;SDS011;11272;50.104;8.754;2023-03-29T14:33:24;10.40;;;2.57;;
22205;SDS011;11272;50.104;8.754;2023-03-29T14:35:52;4.80;;;2.93;;
22205;SDS011;11272;50.104;8.754;2023-03-29T14:38:19;5.80;;;2.90;;
22205;SDS011;11272;50.104;8.754;2023-03-29T14:40:46;4.03;;;2.50;;
22205;SDS011;11272;50.104;8.754;2023-03-29T14:43:13;5.00;;;2.67;;
22205;SDS011;11272;50.104;8.754;2023-03-29T14:45:43;7.27;;;1.93;;
22205;SDS011;11272;50.104;8.754;2023-03-29T14:48:11;6.23;;;2.73;;
22205;SDS011;11272;50.104;8.754;2023-03-29T14:50:37;5.80;;;2.47;;
22205;SDS011;11272;50.104;8.754;2023-03-29T14:53:03;6.97;;;2.90;;
22205;SDS011;11272;50.104;8.754;2023-03-29T14:55:31;6.33;;;2.60;;
22205;SDS011;11272;50.104;8.754;2023-03-29T14:57:57;3.70;;;2.30;;
22205;SDS011;11272;50.104;8.754;2023-03-29T15:00:37;5.90;;;2.43;;
22205;SDS011;11272;50.104;8.754;2023-03-29T15:03:11;3.73;;;2.27;;
22205;SDS011;11272;50.104;8.754;2023-03-29T15:05:41;5.23;;;2.73;;
22205;SDS011;11272;50.104;8.754;2023-03-29T15:10:59;3.27;;;2.17;;
22205;SDS011;11272;50.104;8.754;2023-03-29T15:13:25;3.10;;;1.93;;
22205;SDS011;11272;50.104;8.754;2023-03-29T15:15:52;4.50;;;1.93;;
22205;SDS011;11272;50.104;8.754;2023-03-29T15:18:25;4.77;;;1.87;;
22205;SDS011;11272;50.104;8.754;2023-03-29T15:20:55;3.87;;;2.60;;
22205;SDS011;11272;50.104;8.754;2023-03-29T15:23:22;3.63;;;2.07;;
22205;SDS011;11272;50.104;8.754;2023-03-29T15:25:57;5.13;;;2.17;;
22205;SDS011;11272;50.104;8.754;2023-03-29T15:28:34;4.03;;;2.30;;
22205;SDS011;11272;50.104;8.754;2023-03-29T15:31:10;9.60;;;2.90;;
22205;SDS011;11272;50.104;8.754;2023-03-29T15:33:41;4.80;;;2.20;;
22205;SDS011;11272;50.104;8.754;2023-03-29T15:36:08;3.53;;;2.00;;
22205;SDS011;11272;50.104;8.754;2023-03-29T15:38:35;3.70;;;1.93;;
22205;SDS011;11272;50.104;8.754;2023-03-29T15:41:02;3.60;;;2.00;;
22205;SDS011;11272;50.104;8.754;2023-03-29T15:43:28;4.77;;;2.00;;
22205;SDS011;11272;50.104;8.754;2023-03-29T15:45:55;3.67;;;2.20;;
22205;SDS011;11272;50.104;8.754;2023-03-29T15:48:25;5.93;;;2.23;;
22205;SDS011;11272;50.104;8.754;2023-03-29T15:50:53;4.27;;;2.20;;
22205;SDS011;11272;50.104;8.754;2023-03-29T15:53:20;4.63;;;2.00;;
22205;SDS011;11272;50.104;8.754;2023-03-29T15:55:51;3.33;;;1.93;;
22205;SDS011;11272;50.104;8.754;2023-03-29T15:58:26;3.50;;;2.20;;
22205;SDS011;11272;50.104;8.754;2023-03-29T16:00:56;3.00;;;1.90;;
22205;SDS011;11272;50.104;8.754;2023-03-29T16:03:27;4.97;;;1.77;;
22205;SDS011;11272;50.104;8.754;2023-03-29T16:05:53;4.10;;;1.87;;
22205;SDS011;11272;50.104;8.754;2023-03-29T16:08:21;3.43;;;2.40;;
22205;SDS011;11272;50.104;8.754;2023-03-29T16:10:49;4.90;;;2.00;;
22205;SDS011;11272;50.104;8.754;2023-03-29T16:13:14;4.93;;;2.23;;
22205;SDS011;11272;50.104;8.754;2023-03-29T16:15:40;3.97;;;1.90;;
22205;SDS011;11272;50.104;8.754;2023-03-29T16:18:07;3.63;;;2.00;;
22205;SDS011;11272;50.104;8.754;2023-03-29T16:20:33;3.77;;;2.00;;
22205;SDS011;11272;50.104;8.754;2023-03-29T16:22:58;3.23;;;1.80;;
22205;SDS011;11272;50.104;8.754;2023-03-29T16:25:24;4.00;;;1.80;;
22205;SDS011;11272;50.104;8.754;2023-03-29T16:27:50;5.00;;;2.03;;
22205;SDS011;11272;50.104;8.754;2023-03-29T16:30:17;8.83;;;2.13;;
22205;SDS011;11272;50.104;8.754;2023-03-29T16:32:47;2.50;;;2.23;;
22205;SDS011;11272;50.104;8.754;2023-03-29T16:35:20;5.90;;;1.93;;
22205;SDS011;11272;50.104;8.754;2023-03-29T16:37:48;3.73;;;1.90;;
22205;SDS011;11272;50.104;8.754;2023-03-29T16:40:14;6.20;;;1.90;;
22205;SDS011;11272;50.104;8.754;2023-03-29T16:42:41;4.63;;;2.10;;
22205;SDS011;11272;50.104;8.754;2023-03-29T16:45:10;5.17;;;1.93;;
22205;SDS011;11272;50.104;8.754;2023-03-29T16:47:38;3.90;;;1.80;;
22205;SDS011;11272;50.104;8.754;2023-03-29T16:50:12;6.10;;;1.60;;
22205;SDS011;11272;50.104;8.754;2023-03-29T16:52:43;3.70;;;1.80;;
22205;SDS011;11272;50.104;8.754;2023-03-29T16:55:09;3.03;;;1.77;;
22205;SDS011;11272;50.104;8.754;2023-03-29T16:57:38;4.50;;;2.13;;
22205;SDS011;11272;50.104;8.754;2023-03-29T17:00:05;2.70;;;1.77;;
22205;SDS011;11272;50.104;8.754;2023-03-29T17:02:33;6.90;;;2.00;;
22205;SDS011;11272;50.104;8.754;2023-03-29T17:04:58;3.80;;;1.93;;
22205;SDS011;11272;50.104;8.754;2023-03-29T17:07:24;4.23;;;1.90;;
22205;SDS011;11272;50.104;8.754;2023-03-29T17:09:50;4.67;;;2.10;;
22205;SDS011;11272;50.104;8.754;2023-03-29T17:12:16;3.13;;;1.77;;
22205;SDS011;11272;50.104;8.754;2023-03-29T17:14:42;3.80;;;1.97;;
22205;SDS011;11272;50.104;8.754;2023-03-29T17:17:07;2.73;;;1.80;;
22205;SDS011;11272;50.104;8.754;2023-03-29T17:19:34;5.07;;;2.10;;
22205;SDS011;11272;50.104;8.754;2023-03-29T17:22:00;5.97;;;2.00;;
22205;SDS011;11272;50.104;8.754;2023-03-29T17:24:25;3.10;;;2.00;;
22205;SDS011;11272;50.104;8.754;2023-03-29T17:26:51;4.90;;;2.00;;
22205;SDS011;11272;50.104;8.754;2023-03-29T17:29:17;5.10;;;1.77;;
22205;SDS011;11272;50.104;8.754;2023-03-29T17:31:42;4.47;;;2.20;;
22205;SDS011;11272;50.104;8.754;2023-03-29T17:34:15;2.97;;;2.00;;
22205;SDS011;11272;50.104;8.754;2023-03-29T17:36:42;4.17;;;1.80;;
22205;SDS011;11272;50.104;8.754;2023-03-29T17:39:11;5.50;;;2.10;;
22205;SDS011;11272;50.104;8.754;2023-03-29T17:41:40;2.77;;;1.87;;
22205;SDS011;11272;50.104;8.754;2023-03-29T17:44:06;5.00;;;2.20;;
22205;SDS011;11272;50.104;8.754;2023-03-29T17:46:32;9.47;;;2.30;;
22205;SDS011;11272;50.104;8.754;2023-03-29T17:48:58;4.40;;;1.93;;
22205;SDS011;11272;50.104;8.754;2023-03-29T17:51:25;4.97;;;1.87;;
22205;SDS011;11272;50.104;8.754;2023-03-29T17:53:51;3.10;;;1.70;;
22205;SDS011;11272;50.104;8.754;2023-03-29T17:56:17;4.13;;;1.73;;
22205;SDS011;11272;50.104;8.754;2023-03-29T17:58:47;6.53;;;1.87;;
22205;SDS011;11272;50.104;8.754;2023-03-29T18:01:13;6.10;;;2.17;;
22205;SDS011;11272;50.104;8.754;2023-03-29T18:03:40;4.07;;;1.80;;
22205;SDS011;11272;50.104;8.754;2023-03-29T18:06:07;5.67;;;1.73;;
22205;SDS011;11272;50.104;8.754;2023-03-29T18:08:33;4.13;;;2.00;;
22205;SDS011;11272;50.104;8.754;2023-03-29T18:11:05;3.53;;;1.67;;
22205;SDS011;11272;50.104;8.754;2023-03-29T18:13:33;7.03;;;1.63;;
22205;SDS011;11272;50.104;8.754;2023-03-29T18:15:58;2.97;;;1.70;;
22205;SDS011;11272;50.104;8.754;2023-03-29T18:18:24;4.33;;;2.00;;
22205;SDS011;11272;50.104;8.754;2023-03-29T18:20:51;3.67;;;1.73;;
22205;SDS011;11272;50.104;8.754;2023-03-29T18:23:17;7.03;;;2.00;;
22205;SDS011;11272;50.104;8.754;2023-03-29T18:25:43;4.27;;;1.90;;
22205;SDS011;11272;50.104;8.754;2023-03-29T18:28:08;2.90;;;1.70;;
22205;SDS011;11272;50.104;8.754;2023-03-29T18:30:34;3.30;;;1.47;;
22205;SDS011;11272;50.104;8.754;2023-03-29T18:33:00;3.87;;;1.90;;
22205;SDS011;11272;50.104;8.754;2023-03-29T18:35:25;4.37;;;1.57;;
22205;SDS011;11272;50.104;8.754;2023-03-29T18:37:51;2.90;;;1.73;;
22205;SDS011;11272;50.104;8.754;2023-03-29T18:40:17;4.07;;;2.00;;
22205;SDS011;11272;50.104;8.754;2023-03-29T18:42:51;6.20;;;1.90;;
22205;SDS011;11272;50.104;8.754;2023-03-29T18:45:17;3.40;;;1.90;;
22205;SDS011;11272;50.104;8.754;2023-03-29T18:47:43;7.20;;;2.30;;
22205;SDS011;11272;50.104;8.754;2023-03-29T18:50:09;3.90;;;2.20;;
22205;SDS011;11272;50.104;8.754;2023-03-29T18:52:36;3.97;;;2.20;;
22205;SDS011;11272;50.104;8.754;2023-03-29T18:55:03;3.80;;;2.43;;
22205;SDS011;11272;50.104;8.754;2023-03-29T18:57:29;8.10;;;2.77;;
22205;SDS011;11272;50.104;8.754;2023-03-29T18:59:55;5.40;;;2.50;;
22205;SDS011;11272;50.104;8.754;2023-03-29T19:02:20;4.17;;;2.20;;
22205;SDS011;11272;50.104;8.754;2023-03-29T19:04:46;5.37;;;2.27;;
22205;SDS011;11272;50.104;8.754;2023-03-29T19:07:11;4.27;;;2.10;;
22205;SDS011;11272;50.104;8.754;2023-03-29T19:09:37;3.70;;;2.30;;
22205;SDS011;11272;50.104;8.754;2023-03-29T19:12:03;3.17;;;1.73;;
22205;SDS011;11272;50.104;8.754;2023-03-29T19:14:29;4.77;;;2.00;;
22205;SDS011;11272;50.104;8.754;2023-03-29T19:16:56;6.70;;;2.07;;
22205;SDS011;11272;50.104;8.754;2023-03-29T19:19:22;6.37;;;2.27;;
22205;SDS011;11272;50.104;8.754;2023-03-29T19:21:50;4.10;;;2.20;;
22205;SDS011;11272;50.104;8.754;2023-03-29T19:24:17;6.37;;;2.20;;
22205;SDS011;11272;50.104;8.754;2023-03-29T19:26:43;5.10;;;2.50;;
22205;SDS011;11272;50.104;8.754;2023-03-29T19:29:09;5.60;;;2.63;;
22205;SDS011;11272;50.104;8.754;2023-03-29T19:31:35;5.73;;;2.50;;
22205;SDS011;11272;50.104;8.754;2023-03-29T19:34:06;5.27;;;2.30;;
22205;SDS011;11272;50.104;8.754;2023-03-29T19:36:35;5.87;;;2.00;;
22205;SDS011;11272;50.104;8.754;2023-03-29T19:39:02;4.13;;;1.90;;
22205;SDS011;11272;50.104;8.754;2023-03-29T19:41:29;5.30;;;2.10;;
22205;SDS011;11272;50.104;8.754;2023-03-29T19:43:55;3.83;;;2.57;;
22205;SDS011;11272;50.104;8.754;2023-03-29T19:46:20;4.87;;;2.23;;
22205;SDS011;11272;50.104;8.754;2023-03-29T19:48:46;7.30;;;2.57;;
22205;SDS011;11272;50.104;8.754;2023-03-29T19:51:12;6.73;;;2.70;;
22205;SDS011;11272;50.104;8.754;2023-03-29T19:53:37;4.90;;;2.57;;
22205;SDS011;11272;50.104;8.754;2023-03-29T19:56:04;6.33;;;3.20;;
22205;SDS011;11272;50.104;8.754;2023-03-29T19:58:32;4.53;;;2.90;;
22205;SDS011;11272;50.104;8.754;2023-03-29T20:00:58;7.80;;;2.97;;
22205;SDS011;11272;50.104;8.754;2023-03-29T20:03:24;6.67;;;2.80;;
22205;SDS011;11272;50.104;8.754;2023-03-29T20:05:55;6.17;;;3.17;;
22205;SDS011;11272;50.104;8.754;2023-03-29T20:08:22;8.20;;;3.47;;
22205;SDS011;11272;50.104;8.754;2023-03-29T20:10:55;10.33;;;3.13;;
22205;SDS011;11272;50.104;8.754;2023-03-29T20:13:23;8.43;;;3.37;;
22205;SDS011;11272;50.104;8.754;2023-03-29T20:15:49;5.70;;;3.47;;
22205;SDS011;11272;50.104;8.754;2023-03-29T20:18:15;5.80;;;3.60;;
22205;SDS011;11272;50.104;8.754;2023-03-29T20:20:41;7.83;;;3.97;;
22205;SDS011;11272;50.104;8.754;2023-03-29T20:23:09;8.63;;;4.20;;
22205;SDS011;11272;50.104;8.754;2023-03-29T20:25:35;8.30;;;4.27;;
22205;SDS011;11272;50.104;8.754;2023-03-29T20:28:02;7.17;;;4.80;;
22205;SDS011;11272;50.104;8.754;2023-03-29T20:30:29;11.53;;;4.87;;
22205;SDS011;11272;50.104;8.754;2023-03-29T20:32:55;9.20;;;4.70;;
22205;SDS011;11272;50.104;8.754;2023-03-29T20:35:20;13.73;;;5.20;;
22205;SDS011;11272;50.104;8.754;2023-03-29T20:37:46;10.10;;;3.73;;
22205;SDS011;11272;50.104;8.754;2023-03-29T20:40:11;8.90;;;4.67;;